createdAt,value
2018-04-16T00:00:03.293Z,12.20
2018-04-16T00:02:32.476Z,12.20
2018-04-16T00:05:00.874Z,12.20
2018-04-16T00:07:29.253Z,12.20
2018-04-16T00:09:57.633Z,12.20
2018-04-16T00:12:26.042Z,12.30
2018-04-16T00:14:54.403Z,12.20
2018-04-16T00:17:22.876Z,12.20
2018-04-16T00:19:52.034Z,12.20
2018-04-16T00:22:20.420Z,12.20
2018-04-16T00:24:48.851Z,12.20
2018-04-16T00:27:17.232Z,12.20
2018-04-16T00:29:45.599Z,12.20
2018-04-16T00:35:21.594Z,12.10
2018-04-16T00:37:55.763Z,12.10
2018-04-16T00:43:25.663Z,12.00
2018-04-16T00:45:59.807Z,12.00
2018-04-16T00:48:33.808Z,11.90
2018-04-16T00:51:07.914Z,11.90
2018-04-16T00:53:53.862Z,11.90
2018-04-16T00:56:27.992Z,12.00
2018-04-16T01:01:57.901Z,11.90
2018-04-16T01:04:31.925Z,11.90
2018-04-16T01:07:06.042Z,11.90
2018-04-16T01:09:40.120Z,11.90
2018-04-16T01:12:14.215Z,11.90
2018-04-16T01:14:48.413Z,11.90
2018-04-16T01:20:19.530Z,11.90
2018-04-16T01:22:53.659Z,11.90
2018-04-16T01:25:27.788Z,11.90
2018-04-16T01:28:01.923Z,12.00
2018-04-16T01:30:35.935Z,11.90
2018-04-16T01:33:10.149Z,11.90
2018-04-16T01:42:37.545Z,11.90
2018-04-16T01:45:11.527Z,11.90
2018-04-16T01:47:45.612Z,11.90
2018-04-16T01:50:19.573Z,11.90
2018-04-16T01:52:53.506Z,11.90
2018-04-16T01:55:27.700Z,11.90
2018-04-16T01:58:01.805Z,11.90
2018-04-16T02:00:36.162Z,11.90
2018-04-16T02:03:11.291Z,11.90
2018-04-16T02:05:45.341Z,11.90
2018-04-16T02:08:20.139Z,11.90
2018-04-16T02:10:54.212Z,11.90
2018-04-16T02:13:28.336Z,11.90
2018-04-16T02:16:02.435Z,11.90
2018-04-16T02:18:36.871Z,11.90
2018-04-16T02:21:10.994Z,11.90
2018-04-16T02:23:45.080Z,11.90
2018-04-16T02:26:19.197Z,11.90
2018-04-16T02:28:53.300Z,11.80
2018-04-16T02:31:28.138Z,11.90
2018-04-16T02:34:03.706Z,11.90
2018-04-16T02:36:37.804Z,11.90
2018-04-16T02:39:12.192Z,11.90
2018-04-16T02:41:46.447Z,11.90
2018-04-16T02:44:20.552Z,11.90
2018-04-16T02:46:54.631Z,11.90
2018-04-16T02:49:29.103Z,11.90
2018-04-16T02:52:03.354Z,11.90
2018-04-16T02:54:37.574Z,11.90
2018-04-16T02:57:12.338Z,11.90
2018-04-16T02:59:47.183Z,11.90
2018-04-16T03:02:21.532Z,11.90
2018-04-16T03:04:55.595Z,11.90
2018-04-16T03:07:30.075Z,11.90
2018-04-16T03:10:04.203Z,11.90
2018-04-16T03:12:38.248Z,11.90
2018-04-16T03:15:12.981Z,11.90
2018-04-16T03:17:47.737Z,11.90
2018-04-16T03:20:21.866Z,11.90
2018-04-16T03:22:56.229Z,12.00
2018-04-16T03:25:31.199Z,12.00
2018-04-16T03:28:05.710Z,11.90
2018-04-16T03:30:40.006Z,12.00
2018-04-16T03:36:09.534Z,11.90
2018-04-16T03:38:43.704Z,11.80
2018-04-16T03:41:17.880Z,11.80
2018-04-16T03:43:52.722Z,11.80
2018-04-16T03:49:23.177Z,11.80
2018-04-16T03:54:52.963Z,11.90
2018-04-16T03:57:21.344Z,11.90
2018-04-16T03:59:50.135Z,11.90
2018-04-16T04:02:19.117Z,11.90
2018-04-16T04:04:47.515Z,11.90
2018-04-16T04:07:15.895Z,11.90
2018-04-16T04:09:44.419Z,11.80
2018-04-16T04:12:12.827Z,11.90
2018-04-16T04:14:41.226Z,11.90
2018-04-16T04:17:09.606Z,11.90
2018-04-16T04:19:38.080Z,11.90
2018-04-16T04:22:06.750Z,11.80
2018-04-16T04:24:47.150Z,11.90
2018-04-16T04:27:27.893Z,11.90
2018-04-16T04:30:08.300Z,11.90
2018-04-16T04:32:36.662Z,11.90
2018-04-16T04:35:05.773Z,11.90
2018-04-16T04:37:34.915Z,11.90
2018-04-16T04:40:03.294Z,11.90
2018-04-16T04:42:31.673Z,11.90
2018-04-16T04:45:00.068Z,11.90
2018-04-16T04:47:29.764Z,11.90
2018-04-16T04:49:58.555Z,11.90
2018-04-16T04:52:26.927Z,11.80
2018-04-16T04:54:55.432Z,11.90
2018-04-16T04:57:23.810Z,11.90
2018-04-16T04:59:52.177Z,11.90
2018-04-16T05:02:20.637Z,12.00
2018-04-16T05:04:49.085Z,12.00
2018-04-16T05:07:18.424Z,12.00
2018-04-16T05:09:46.800Z,12.00
2018-04-16T05:12:15.196Z,12.10
2018-04-16T05:14:43.597Z,12.10
2018-04-16T05:17:11.934Z,12.10
2018-04-16T05:19:40.354Z,12.10
2018-04-16T05:22:08.718Z,12.20
2018-04-16T05:24:37.091Z,12.20
2018-04-16T05:27:05.501Z,12.20
2018-04-16T05:29:34.049Z,12.20
2018-04-16T05:32:02.430Z,12.30
2018-04-16T05:34:30.783Z,12.30
2018-04-16T05:36:59.155Z,12.30
2018-04-16T05:39:27.651Z,12.40
2018-04-16T05:41:56.050Z,12.40
2018-04-16T05:44:24.562Z,12.30
2018-04-16T05:46:53.014Z,12.40
2018-04-16T05:49:21.408Z,12.50
2018-04-16T05:51:49.771Z,12.50
2018-04-16T05:54:18.232Z,12.60
2018-04-16T05:56:46.582Z,12.60
2018-04-16T05:59:15.834Z,12.70
2018-04-16T06:01:44.331Z,12.80
2018-04-16T06:04:12.899Z,12.80
2018-04-16T06:06:42.283Z,12.90
2018-04-16T06:09:10.792Z,12.90
2018-04-16T06:11:39.278Z,12.90
2018-04-16T06:14:07.610Z,12.90
2018-04-16T06:16:36.200Z,12.90
2018-04-16T06:19:05.389Z,12.90
2018-04-16T06:21:33.795Z,12.90
2018-04-16T06:24:02.218Z,12.90
2018-04-16T06:26:30.582Z,12.90
2018-04-16T06:28:59.069Z,12.90
2018-04-16T06:31:27.427Z,12.90
2018-04-16T06:33:55.790Z,12.90
2018-04-16T06:36:24.471Z,12.90
2018-04-16T06:38:53.562Z,12.90
2018-04-16T06:41:22.040Z,12.90
2018-04-16T06:43:50.386Z,12.90
2018-04-16T06:46:18.732Z,13.00
2018-04-16T06:48:47.144Z,13.00
2018-04-16T06:51:15.502Z,13.10
2018-04-16T06:53:43.883Z,13.20
2018-04-16T06:56:12.226Z,13.30
2018-04-16T06:58:40.605Z,13.30
2018-04-16T07:01:09.978Z,13.40
2018-04-16T07:03:39.108Z,13.50
2018-04-16T07:06:07.476Z,13.50
2018-04-16T07:08:35.924Z,13.50
2018-04-16T07:11:04.338Z,13.60
2018-04-16T07:13:32.772Z,13.70
2018-04-16T07:16:01.186Z,13.80
2018-04-16T07:18:29.498Z,13.80
2018-04-16T07:20:57.875Z,13.90
2018-04-16T07:23:26.256Z,14.00
2018-04-16T07:25:54.622Z,14.00
2018-04-16T07:28:23.223Z,14.10
2018-04-16T07:30:51.643Z,14.20
2018-04-16T07:33:20.001Z,14.30
2018-04-16T07:35:48.471Z,14.30
2018-04-16T07:38:16.838Z,14.40
2018-04-16T07:40:45.370Z,14.50
2018-04-16T07:43:13.719Z,14.60
2018-04-16T07:45:42.079Z,14.70
2018-04-16T07:48:10.445Z,14.80
2018-04-16T07:50:38.792Z,14.90
2018-04-16T07:53:07.919Z,15.10
2018-04-16T07:55:36.413Z,15.10
2018-04-16T07:58:04.752Z,15.20
2018-04-16T08:00:33.869Z,15.30
2018-04-16T08:03:02.263Z,15.30
2018-04-16T08:05:30.755Z,15.50
2018-04-16T08:07:59.104Z,15.60
2018-04-16T08:10:27.452Z,15.70
2018-04-16T08:12:55.832Z,15.70
2018-04-16T08:15:24.183Z,15.70
2018-04-16T08:17:52.651Z,15.80
2018-04-16T08:20:21.024Z,15.90
2018-04-16T08:22:49.371Z,15.90
2018-04-16T08:25:17.778Z,15.90
2018-04-16T08:27:46.183Z,15.90
2018-04-16T08:30:14.544Z,15.90
2018-04-16T08:32:42.891Z,15.90
2018-04-16T08:35:11.251Z,16.00
2018-04-16T08:37:40.403Z,15.90
2018-04-16T08:40:08.752Z,15.90
2018-04-16T08:42:37.103Z,15.80
2018-04-16T08:45:05.495Z,15.80
2018-04-16T08:47:33.841Z,15.90
2018-04-16T08:50:02.197Z,16.00
2018-04-16T08:52:30.573Z,16.20
2018-04-16T08:54:58.942Z,16.20
2018-04-16T08:57:27.335Z,16.10
2018-04-16T08:59:55.730Z,16.40
2018-04-16T09:02:24.095Z,16.60
2018-04-16T09:04:52.455Z,16.50
2018-04-16T09:07:20.811Z,16.70
2018-04-16T09:09:49.161Z,16.90
2018-04-16T09:12:17.531Z,17.20
2018-04-16T09:14:45.883Z,17.30
2018-04-16T09:17:14.255Z,17.50
2018-04-16T09:19:42.614Z,17.70
2018-04-16T09:22:10.978Z,17.90
2018-04-16T09:24:39.339Z,17.90
2018-04-16T09:27:07.785Z,18.10
2018-04-16T09:29:36.126Z,18.00
2018-04-16T09:32:04.492Z,18.20
2018-04-16T09:34:32.844Z,18.20
2018-04-16T09:37:01.205Z,17.70
2018-04-16T09:39:29.672Z,17.80
2018-04-16T09:41:58.029Z,17.70
2018-04-16T09:44:26.383Z,18.00
2018-04-16T09:46:54.787Z,18.50
2018-04-16T09:49:23.134Z,18.70
2018-04-16T09:51:51.499Z,19.00
2018-04-16T09:54:19.846Z,19.00
2018-04-16T09:56:48.247Z,19.30
2018-04-16T09:59:16.645Z,19.50
2018-04-16T10:01:51.573Z,19.70
2018-04-16T10:04:20.034Z,20.10
2018-04-16T10:06:48.418Z,20.00
2018-04-16T10:09:16.792Z,19.60
2018-04-16T10:11:45.246Z,19.60
2018-04-16T10:14:13.650Z,19.90
2018-04-16T10:16:41.996Z,20.20
2018-04-16T10:19:10.395Z,20.10
2018-04-16T10:21:38.746Z,20.00
2018-04-16T10:24:08.192Z,19.50
2018-04-16T10:26:36.565Z,19.40
2018-04-16T10:29:04.955Z,19.40
2018-04-16T10:31:33.309Z,19.50
2018-04-16T10:34:01.675Z,19.60
2018-04-16T10:36:30.078Z,20.00
2018-04-16T10:38:58.613Z,19.90
2018-04-16T10:41:27.003Z,19.60
2018-04-16T10:43:56.147Z,19.90
2018-04-16T10:46:24.624Z,19.90
2018-04-16T10:48:52.994Z,19.90
2018-04-16T10:51:21.365Z,20.00
2018-04-16T10:53:49.770Z,20.30
2018-04-16T10:56:18.341Z,20.30
2018-04-16T10:58:46.841Z,20.60
2018-04-16T11:01:15.197Z,20.30
2018-04-16T11:03:43.574Z,20.20
2018-04-16T11:06:11.977Z,19.80
2018-04-16T11:08:40.299Z,19.50
2018-04-16T11:11:09.451Z,19.10
2018-04-16T11:13:38.033Z,19.00
2018-04-16T11:16:06.391Z,19.30
2018-04-16T11:18:34.890Z,19.20
2018-04-16T11:21:03.261Z,19.00
2018-04-16T11:23:31.617Z,19.10
2018-04-16T11:25:59.959Z,19.20
2018-04-16T11:28:28.427Z,19.20
2018-04-16T11:30:56.763Z,19.20
2018-04-16T11:33:25.143Z,19.30
2018-04-16T11:35:53.539Z,19.30
2018-04-16T11:38:21.911Z,19.50
2018-04-16T11:40:50.320Z,19.20
2018-04-16T11:43:18.799Z,19.50
2018-04-16T11:45:47.147Z,20.00
2018-04-16T11:48:15.519Z,20.10
2018-04-16T11:50:43.943Z,20.40
2018-04-16T11:53:12.272Z,20.40
2018-04-16T11:55:40.648Z,20.80
2018-04-16T11:58:09.802Z,21.50
2018-04-16T12:00:38.163Z,21.50
2018-04-16T12:03:06.539Z,21.60
2018-04-16T12:05:34.920Z,21.40
2018-04-16T12:08:03.277Z,21.70
2018-04-16T12:10:31.628Z,21.80
2018-04-16T12:13:00.005Z,21.60
2018-04-16T12:15:28.459Z,22.10
2018-04-16T12:17:56.894Z,22.40
2018-04-16T12:20:26.021Z,21.00
2018-04-16T12:22:54.363Z,21.00
2018-04-16T12:25:25.647Z,20.90
2018-04-16T12:27:54.001Z,21.00
2018-04-16T12:30:22.381Z,20.50
2018-04-16T12:32:50.718Z,20.70
2018-04-16T12:35:19.143Z,20.40
2018-04-16T12:37:47.535Z,20.60
2018-04-16T12:40:16.107Z,20.70
2018-04-16T12:42:44.580Z,20.90
2018-04-16T12:45:12.920Z,21.00
2018-04-16T12:47:41.292Z,21.10
2018-04-16T12:50:09.632Z,20.90
2018-04-16T12:52:37.984Z,21.10
2018-04-16T12:55:16.020Z,20.40
2018-04-16T12:57:44.440Z,20.40
2018-04-16T13:00:18.405Z,20.40
2018-04-16T13:02:46.788Z,19.80
2018-04-16T13:05:20.939Z,19.60
2018-04-16T13:07:49.482Z,19.50
2018-04-16T13:10:17.810Z,19.60
2018-04-16T13:12:46.279Z,19.60
2018-04-16T13:15:14.647Z,19.50
2018-04-16T13:17:42.993Z,19.40
2018-04-16T13:20:11.402Z,19.40
2018-04-16T13:22:39.752Z,19.50
2018-04-16T13:25:08.232Z,19.60
2018-04-16T13:27:36.616Z,19.50
2018-04-16T13:30:04.994Z,19.30
2018-04-16T13:32:33.482Z,19.20
2018-04-16T13:35:01.846Z,19.20
2018-04-16T13:37:30.343Z,19.20
2018-04-16T13:39:58.765Z,19.20
2018-04-16T13:42:27.205Z,19.00
2018-04-16T13:44:55.583Z,19.00
2018-04-16T13:47:24.156Z,19.10
2018-04-16T13:49:58.456Z,19.10
2018-04-16T13:52:26.828Z,19.20
2018-04-16T13:54:55.987Z,18.80
2018-04-16T13:57:30.137Z,18.80
2018-04-16T13:59:58.520Z,18.80
2018-04-16T14:02:33.506Z,18.90
2018-04-16T14:05:01.864Z,18.90
2018-04-16T14:07:30.343Z,18.90
2018-04-16T14:09:58.692Z,19.10
2018-04-16T14:12:27.842Z,19.70
2018-04-16T14:15:07.767Z,19.60
2018-04-16T14:17:36.126Z,19.80
2018-04-16T14:20:11.262Z,20.40
2018-04-16T14:22:39.884Z,20.40
2018-04-16T14:25:20.266Z,20.10
2018-04-16T14:27:54.712Z,19.40
2018-04-16T14:30:28.847Z,19.30
2018-04-16T14:33:03.106Z,19.40
2018-04-16T14:35:37.321Z,19.10
2018-04-16T14:38:05.670Z,19.20
2018-04-16T14:40:39.955Z,19.40
2018-04-16T14:43:08.357Z,19.30
2018-04-16T14:45:36.774Z,19.00
2018-04-16T14:48:05.193Z,18.90
2018-04-16T14:50:33.555Z,18.90
2018-04-16T14:53:07.795Z,19.30
2018-04-16T14:55:36.143Z,20.20
2018-04-16T14:58:04.509Z,20.70
2018-04-16T15:00:32.959Z,20.70
2018-04-16T15:03:07.335Z,20.50
2018-04-16T15:05:35.714Z,20.90
2018-04-16T15:08:04.064Z,21.10
2018-04-16T15:10:32.424Z,21.00
2018-04-16T15:13:00.809Z,21.30
2018-04-16T15:15:29.693Z,21.50
2018-04-16T15:17:58.105Z,21.70
2018-04-16T15:20:26.450Z,21.40
2018-04-16T15:22:54.844Z,21.50
2018-04-16T15:25:23.301Z,21.20
2018-04-16T15:27:51.817Z,21.00
2018-04-16T15:30:20.131Z,21.10
2018-04-16T15:32:48.603Z,21.10
2018-04-16T15:35:16.951Z,21.40
2018-04-16T15:37:45.333Z,21.10
2018-04-16T15:40:13.706Z,21.00
2018-04-16T15:42:42.296Z,21.30
2018-04-16T15:45:10.636Z,20.80
2018-04-16T15:47:40.691Z,20.50
2018-04-16T15:50:09.106Z,20.40
2018-04-16T15:52:37.500Z,20.60
2018-04-16T15:55:06.610Z,21.30
2018-04-16T15:57:35.706Z,21.30
2018-04-16T16:00:04.893Z,20.80
2018-04-16T16:02:33.304Z,20.80
2018-04-16T16:05:01.696Z,20.60
2018-04-16T16:07:30.066Z,20.80
2018-04-16T16:09:58.668Z,20.60
2018-04-16T16:12:27.156Z,20.80
2018-04-16T16:14:55.487Z,21.10
2018-04-16T16:17:24.712Z,21.20
2018-04-16T16:19:53.102Z,21.20
2018-04-16T16:22:21.531Z,21.00
2018-04-16T16:24:49.918Z,21.00
2018-04-16T16:27:18.440Z,20.90
2018-04-16T16:29:46.830Z,21.10
2018-04-16T16:32:15.206Z,21.70
2018-04-16T16:34:43.593Z,21.50
2018-04-16T16:37:11.968Z,20.90
2018-04-16T16:39:40.483Z,21.00
2018-04-16T16:42:09.073Z,21.00
2018-04-16T16:44:37.437Z,20.90
2018-04-16T16:47:05.940Z,21.20
2018-04-16T16:49:35.107Z,22.00
2018-04-16T16:52:03.585Z,22.00
2018-04-16T16:54:31.949Z,22.20
2018-04-16T16:57:00.309Z,21.70
2018-04-16T16:59:28.759Z,21.10
2018-04-16T17:01:57.105Z,20.40
2018-04-16T17:04:25.736Z,20.30
2018-04-16T17:06:54.104Z,19.90
2018-04-16T17:09:22.480Z,19.60
2018-04-16T17:11:50.878Z,19.40
2018-04-16T17:14:19.273Z,19.10
2018-04-16T17:16:47.619Z,18.90
2018-04-16T17:19:16.010Z,18.80
2018-04-16T17:21:45.165Z,19.30
2018-04-16T17:24:14.121Z,19.20
2018-04-16T17:26:42.721Z,19.10
2018-04-16T17:29:11.109Z,19.00
2018-04-16T17:31:39.523Z,18.90
2018-04-16T17:34:11.352Z,18.80
2018-04-16T17:36:39.691Z,18.60
2018-04-16T17:39:08.139Z,18.60
2018-04-16T17:41:36.535Z,18.50
2018-04-16T17:44:04.901Z,18.50
2018-04-16T17:46:33.254Z,18.50
2018-04-16T17:49:01.626Z,18.40
2018-04-16T17:51:30.093Z,18.30
2018-04-16T17:53:58.485Z,18.20
2018-04-16T17:56:26.884Z,18.10
2018-04-16T17:58:55.458Z,18.00
2018-04-16T18:01:23.803Z,18.00
2018-04-16T18:03:52.221Z,17.90
2018-04-16T18:06:21.061Z,17.80
2018-04-16T18:08:49.430Z,17.70
2018-04-16T18:11:18.574Z,17.60
2018-04-16T18:13:46.997Z,17.60
2018-04-16T18:16:15.366Z,17.60
2018-04-16T18:18:43.737Z,17.50
2018-04-16T18:21:12.090Z,17.40
2018-04-16T18:23:40.481Z,17.30
2018-04-16T18:26:08.823Z,17.20
2018-04-16T18:28:37.225Z,17.10
2018-04-16T18:31:05.715Z,17.10
2018-04-16T18:33:34.074Z,17.00
2018-04-16T18:36:02.469Z,16.90
2018-04-16T18:38:31.437Z,16.90
2018-04-16T18:40:59.928Z,16.80
2018-04-16T18:43:28.288Z,16.80
2018-04-16T18:45:56.655Z,16.80
2018-04-16T18:48:25.896Z,16.60
2018-04-16T18:50:54.275Z,16.60
2018-04-16T18:53:22.677Z,16.60
2018-04-16T18:55:51.060Z,16.50
2018-04-16T18:58:19.420Z,16.50
2018-04-16T19:00:47.824Z,16.40
2018-04-16T19:03:16.185Z,16.40
2018-04-16T19:05:44.526Z,16.30
2018-04-16T19:08:13.109Z,16.30
2018-04-16T19:10:42.306Z,16.20
2018-04-16T19:13:11.485Z,16.10
2018-04-16T19:15:39.854Z,16.10
2018-04-16T19:18:08.200Z,16.10
2018-04-16T19:20:42.215Z,16.10
2018-04-16T19:23:10.586Z,16.00
2018-04-16T19:25:38.934Z,16.00
2018-04-16T19:28:13.066Z,15.90
2018-04-16T19:30:42.067Z,15.90
2018-04-16T19:33:16.269Z,15.90
2018-04-16T19:35:44.696Z,15.80
2018-04-16T19:38:13.110Z,15.80
2018-04-16T19:40:41.607Z,15.70
2018-04-16T19:43:10.020Z,15.70
2018-04-16T19:45:38.517Z,15.60
2018-04-16T19:48:06.928Z,15.60
2018-04-16T19:50:36.059Z,15.50
2018-04-16T19:53:05.045Z,15.50
2018-04-16T19:55:39.051Z,15.40
2018-04-16T19:58:13.157Z,15.40
2018-04-16T20:00:41.548Z,15.30
2018-04-16T20:03:15.502Z,15.30
2018-04-16T20:05:43.871Z,15.20
2018-04-16T20:08:12.280Z,15.10
2018-04-16T20:10:40.634Z,15.10
2018-04-16T20:13:09.112Z,15.10
2018-04-16T20:15:37.518Z,15.00
2018-04-16T20:18:05.888Z,15.00
2018-04-16T20:20:34.349Z,15.00
2018-04-16T20:23:02.698Z,15.00
2018-04-16T20:25:31.057Z,15.00
2018-04-16T20:28:00.023Z,15.00
2018-04-16T20:30:28.374Z,15.00
2018-04-16T20:32:56.777Z,15.00
2018-04-16T20:35:25.132Z,15.00
2018-04-16T20:37:53.522Z,15.00
2018-04-16T20:40:21.965Z,15.00
2018-04-16T20:42:50.433Z,14.90
2018-04-16T20:45:19.580Z,14.80
2018-04-16T20:47:47.931Z,14.80
2018-04-16T20:50:16.311Z,14.80
2018-04-16T20:52:44.650Z,14.70
2018-04-16T20:55:13.817Z,14.60
2018-04-16T20:57:42.203Z,14.60
2018-04-16T21:00:10.637Z,14.50
2018-04-16T21:02:39.099Z,14.50
2018-04-16T21:05:08.430Z,14.40
2018-04-16T21:07:36.792Z,14.40
2018-04-16T21:10:05.147Z,14.30
2018-04-16T21:12:33.524Z,14.30
2018-04-16T21:15:01.879Z,14.20
2018-04-16T21:17:30.237Z,14.20
2018-04-16T21:19:58.601Z,14.10
2018-04-16T21:22:27.103Z,14.10
2018-04-16T21:24:55.492Z,14.10
2018-04-16T21:27:23.870Z,14.10
2018-04-16T21:29:52.234Z,14.00
2018-04-16T21:32:20.676Z,14.00
2018-04-16T21:34:49.043Z,14.00
2018-04-16T21:37:18.188Z,14.00
2018-04-16T21:39:46.684Z,14.00
2018-04-16T21:42:15.059Z,14.00
2018-04-16T21:44:44.408Z,14.00
2018-04-16T21:47:13.549Z,14.00
2018-04-16T21:49:41.919Z,13.90
2018-04-16T21:52:10.298Z,13.90
2018-04-16T21:54:39.628Z,13.90
2018-04-16T21:57:08.729Z,13.90
2018-04-16T21:59:37.102Z,13.90
2018-04-16T22:02:05.742Z,13.80
2018-04-16T22:04:34.935Z,13.80
2018-04-16T22:07:03.333Z,13.80
2018-04-16T22:09:31.757Z,13.80
2018-04-16T22:12:00.372Z,13.80
2018-04-16T22:14:28.924Z,13.80
2018-04-16T22:16:57.262Z,13.80
2018-04-16T22:19:25.623Z,13.80
2018-04-16T22:21:54.856Z,13.70
2018-04-16T22:24:23.201Z,13.70
2018-04-16T22:26:51.607Z,13.80
2018-04-16T22:29:19.967Z,13.70
2018-04-16T22:31:48.326Z,13.70
2018-04-16T22:34:17.449Z,13.60
2018-04-16T22:36:45.827Z,13.60
2018-04-16T22:39:14.166Z,13.60
2018-04-16T22:41:42.542Z,13.50
2018-04-16T22:44:10.993Z,13.50
2018-04-16T22:46:39.368Z,13.40
2018-04-16T22:49:07.722Z,13.40
2018-04-16T22:51:36.089Z,13.40
2018-04-16T22:54:05.341Z,13.40
2018-04-16T22:56:33.780Z,13.30
2018-04-16T22:59:02.151Z,13.40
2018-04-16T23:01:31.390Z,13.30
2018-04-16T23:03:59.765Z,13.30
2018-04-16T23:06:28.109Z,13.30
2018-04-16T23:08:56.535Z,13.30
2018-04-16T23:11:24.906Z,13.30
2018-04-16T23:13:53.286Z,13.30
2018-04-16T23:16:21.623Z,13.20
2018-04-16T23:18:50.041Z,13.30
2018-04-16T23:21:18.497Z,13.20
2018-04-16T23:23:46.847Z,13.20
2018-04-16T23:26:15.222Z,13.20
2018-04-16T23:28:43.556Z,13.10
2018-04-16T23:31:11.913Z,13.10
2018-04-16T23:33:40.248Z,13.10
2018-04-16T23:36:08.624Z,13.00
2018-04-16T23:38:36.970Z,13.00
2018-04-16T23:41:05.563Z,12.90
2018-04-16T23:43:33.914Z,12.90
2018-04-16T23:46:02.261Z,12.90
2018-04-16T23:48:30.711Z,12.90
2018-04-16T23:50:59.261Z,12.80
2018-04-16T23:53:27.792Z,12.80
2018-04-16T23:55:56.251Z,12.70
2018-04-16T23:58:24.786Z,12.70
